sensor_id;sensor_type;location;lat;lon;timestamp;P1;durP1;ratioP1;P2;durP2;ratioP2
69310;SDS011;56430;48.154;16.458;2022-12-07T00:00:35;7.55;;;2.90;;
69310;SDS011;56430;48.154;16.458;2022-12-07T00:03:02;5.88;;;2.33;;
69310;SDS011;56430;48.154;16.458;2022-12-07T00:05:30;6.20;;;2.70;;
69310;SDS011;56430;48.154;16.458;2022-12-07T00:07:57;7.22;;;2.47;;
69310;SDS011;56430;48.154;16.458;2022-12-07T00:10:24;8.73;;;2.77;;
69310;SDS011;56430;48.154;16.458;2022-12-07T00:12:53;6.57;;;2.70;;
69310;SDS011;56430;48.154;16.458;2022-12-07T00:15:20;8.07;;;2.85;;
69310;SDS011;56430;48.154;16.458;2022-12-07T00:17:47;7.75;;;3.15;;
69310;SDS011;56430;48.154;16.458;2022-12-07T00:20:14;6.40;;;2.72;;
69310;SDS011;56430;48.154;16.458;2022-12-07T00:22:42;6.47;;;2.67;;
69310;SDS011;56430;48.154;16.458;2022-12-07T00:25:09;5.47;;;2.50;;
69310;SDS011;56430;48.154;16.458;2022-12-07T00:27:36;6.75;;;2.80;;
69310;SDS011;56430;48.154;16.458;2022-12-07T00:30:05;7.22;;;3.50;;
69310;SDS011;56430;48.154;16.458;2022-12-07T00:32:33;7.72;;;3.33;;
69310;SDS011;56430;48.154;16.458;2022-12-07T00:35:01;6.97;;;3.00;;
69310;SDS011;56430;48.154;16.458;2022-12-07T00:37:28;7.65;;;3.30;;
69310;SDS011;56430;48.154;16.458;2022-12-07T00:39:55;8.88;;;3.47;;
69310;SDS011;56430;48.154;16.458;2022-12-07T00:42:23;8.30;;;3.17;;
69310;SDS011;56430;48.154;16.458;2022-12-07T00:44:50;8.43;;;3.47;;
69310;SDS011;56430;48.154;16.458;2022-12-07T00:47:18;8.60;;;3.80;;
69310;SDS011;56430;48.154;16.458;2022-12-07T00:49:45;9.05;;;3.70;;
69310;SDS011;56430;48.154;16.458;2022-12-07T00:52:13;8.52;;;3.50;;
69310;SDS011;56430;48.154;16.458;2022-12-07T00:54:40;8.43;;;3.70;;
69310;SDS011;56430;48.154;16.458;2022-12-07T00:57:07;8.50;;;3.58;;
69310;SDS011;56430;48.154;16.458;2022-12-07T00:59:34;7.83;;;3.60;;
69310;SDS011;56430;48.154;16.458;2022-12-07T01:02:01;8.43;;;3.95;;
69310;SDS011;56430;48.154;16.458;2022-12-07T01:04:32;9.52;;;4.28;;
69310;SDS011;56430;48.154;16.458;2022-12-07T01:07:03;9.32;;;3.70;;
69310;SDS011;56430;48.154;16.458;2022-12-07T01:09:30;9.23;;;3.95;;
69310;SDS011;56430;48.154;16.458;2022-12-07T01:11:58;9.10;;;4.40;;
69310;SDS011;56430;48.154;16.458;2022-12-07T01:14:25;11.27;;;4.75;;
69310;SDS011;56430;48.154;16.458;2022-12-07T01:16:52;9.35;;;4.28;;
69310;SDS011;56430;48.154;16.458;2022-12-07T01:19:19;8.85;;;4.32;;
69310;SDS011;56430;48.154;16.458;2022-12-07T01:21:48;10.52;;;4.60;;
69310;SDS011;56430;48.154;16.458;2022-12-07T01:24:15;10.00;;;4.63;;
69310;SDS011;56430;48.154;16.458;2022-12-07T01:26:42;11.32;;;5.00;;
69310;SDS011;56430;48.154;16.458;2022-12-07T01:29:09;11.40;;;4.55;;
69310;SDS011;56430;48.154;16.458;2022-12-07T01:31:36;9.43;;;4.28;;
69310;SDS011;56430;48.154;16.458;2022-12-07T01:34:04;9.63;;;4.10;;
69310;SDS011;56430;48.154;16.458;2022-12-07T01:36:32;11.47;;;4.60;;
69310;SDS011;56430;48.154;16.458;2022-12-07T01:39:02;11.05;;;4.88;;
69310;SDS011;56430;48.154;16.458;2022-12-07T01:41:31;9.00;;;4.20;;
69310;SDS011;56430;48.154;16.458;2022-12-07T01:44:10;12.32;;;5.45;;
69310;SDS011;56430;48.154;16.458;2022-12-07T01:46:46;11.65;;;4.72;;
69310;SDS011;56430;48.154;16.458;2022-12-07T01:49:16;12.17;;;5.00;;
69310;SDS011;56430;48.154;16.458;2022-12-07T01:51:45;11.82;;;5.03;;
69310;SDS011;56430;48.154;16.458;2022-12-07T01:54:14;17.25;;;5.05;;
69310;SDS011;56430;48.154;16.458;2022-12-07T01:56:44;12.95;;;5.75;;
69310;SDS011;56430;48.154;16.458;2022-12-07T01:59:15;12.52;;;5.78;;
69310;SDS011;56430;48.154;16.458;2022-12-07T02:04:39;11.98;;;5.80;;
69310;SDS011;56430;48.154;16.458;2022-12-07T02:07:06;13.07;;;5.22;;
69310;SDS011;56430;48.154;16.458;2022-12-07T02:09:35;13.85;;;5.47;;
69310;SDS011;56430;48.154;16.458;2022-12-07T02:12:02;13.27;;;5.75;;
69310;SDS011;56430;48.154;16.458;2022-12-07T02:14:30;11.93;;;5.17;;
69310;SDS011;56430;48.154;16.458;2022-12-07T02:17:01;14.20;;;5.60;;
69310;SDS011;56430;48.154;16.458;2022-12-07T02:19:50;11.98;;;5.32;;
69310;SDS011;56430;48.154;16.458;2022-12-07T02:25:55;12.35;;;5.18;;
69310;SDS011;56430;48.154;16.458;2022-12-07T02:28:30;13.27;;;5.53;;
69310;SDS011;56430;48.154;16.458;2022-12-07T02:31:01;9.85;;;4.22;;
69310;SDS011;56430;48.154;16.458;2022-12-07T02:33:33;11.15;;;5.32;;
69310;SDS011;56430;48.154;16.458;2022-12-07T02:36:04;11.48;;;5.28;;
69310;SDS011;56430;48.154;16.458;2022-12-07T02:38:34;11.02;;;4.57;;
69310;SDS011;56430;48.154;16.458;2022-12-07T02:41:04;14.00;;;5.73;;
69310;SDS011;56430;48.154;16.458;2022-12-07T02:43:34;12.15;;;4.85;;
69310;SDS011;56430;48.154;16.458;2022-12-07T02:46:05;11.80;;;4.93;;
69310;SDS011;56430;48.154;16.458;2022-12-07T02:48:35;12.75;;;4.80;;
69310;SDS011;56430;48.154;16.458;2022-12-07T02:51:04;10.95;;;4.93;;
69310;SDS011;56430;48.154;16.458;2022-12-07T02:53:31;11.43;;;4.90;;
69310;SDS011;56430;48.154;16.458;2022-12-07T02:56:00;10.68;;;4.82;;
69310;SDS011;56430;48.154;16.458;2022-12-07T02:58:32;12.15;;;5.28;;
69310;SDS011;56430;48.154;16.458;2022-12-07T03:01:11;11.32;;;5.00;;
69310;SDS011;56430;48.154;16.458;2022-12-07T03:03:43;11.43;;;5.00;;
69310;SDS011;56430;48.154;16.458;2022-12-07T03:06:19;12.07;;;5.10;;
69310;SDS011;56430;48.154;16.458;2022-12-07T03:08:51;12.48;;;5.40;;
69310;SDS011;56430;48.154;16.458;2022-12-07T03:11:24;10.68;;;4.95;;
69310;SDS011;56430;48.154;16.458;2022-12-07T03:13:55;12.35;;;4.32;;
69310;SDS011;56430;48.154;16.458;2022-12-07T03:16:27;12.20;;;5.03;;
69310;SDS011;56430;48.154;16.458;2022-12-07T03:18:58;9.70;;;4.80;;
69310;SDS011;56430;48.154;16.458;2022-12-07T03:21:27;10.15;;;4.25;;
69310;SDS011;56430;48.154;16.458;2022-12-07T03:24:00;12.05;;;4.85;;
69310;SDS011;56430;48.154;16.458;2022-12-07T03:26:32;10.00;;;3.97;;
69310;SDS011;56430;48.154;16.458;2022-12-07T03:29:02;11.65;;;4.63;;
69310;SDS011;56430;48.154;16.458;2022-12-07T03:31:34;12.27;;;4.67;;
69310;SDS011;56430;48.154;16.458;2022-12-07T03:34:06;11.77;;;4.95;;
69310;SDS011;56430;48.154;16.458;2022-12-07T03:36:35;11.60;;;4.85;;
69310;SDS011;56430;48.154;16.458;2022-12-07T03:39:08;10.88;;;4.53;;
69310;SDS011;56430;48.154;16.458;2022-12-07T03:41:40;12.55;;;4.60;;
69310;SDS011;56430;48.154;16.458;2022-12-07T03:44:08;10.97;;;4.40;;
69310;SDS011;56430;48.154;16.458;2022-12-07T03:46:41;11.02;;;4.95;;
69310;SDS011;56430;48.154;16.458;2022-12-07T03:49:11;11.85;;;4.55;;
69310;SDS011;56430;48.154;16.458;2022-12-07T03:51:43;10.23;;;4.28;;
69310;SDS011;56430;48.154;16.458;2022-12-07T03:54:14;12.55;;;4.40;;
69310;SDS011;56430;48.154;16.458;2022-12-07T03:56:44;15.33;;;5.37;;
69310;SDS011;56430;48.154;16.458;2022-12-07T03:59:12;10.02;;;4.43;;
69310;SDS011;56430;48.154;16.458;2022-12-07T04:01:42;10.32;;;4.43;;
69310;SDS011;56430;48.154;16.458;2022-12-07T04:04:10;10.15;;;4.57;;
69310;SDS011;56430;48.154;16.458;2022-12-07T04:06:37;11.02;;;4.82;;
69310;SDS011;56430;48.154;16.458;2022-12-07T04:09:04;11.50;;;4.87;;
69310;SDS011;56430;48.154;16.458;2022-12-07T04:11:32;15.40;;;5.63;;
69310;SDS011;56430;48.154;16.458;2022-12-07T04:13:59;16.58;;;7.07;;
69310;SDS011;56430;48.154;16.458;2022-12-07T04:16:46;12.35;;;4.75;;
69310;SDS011;56430;48.154;16.458;2022-12-07T04:19:14;12.68;;;5.18;;
69310;SDS011;56430;48.154;16.458;2022-12-07T04:21:42;9.10;;;3.60;;
69310;SDS011;56430;48.154;16.458;2022-12-07T04:24:09;9.85;;;4.05;;
69310;SDS011;56430;48.154;16.458;2022-12-07T04:26:37;8.48;;;3.25;;
69310;SDS011;56430;48.154;16.458;2022-12-07T04:29:05;9.45;;;3.58;;
69310;SDS011;56430;48.154;16.458;2022-12-07T04:31:32;9.48;;;3.58;;
69310;SDS011;56430;48.154;16.458;2022-12-07T04:34:00;10.97;;;3.47;;
69310;SDS011;56430;48.154;16.458;2022-12-07T04:36:28;8.27;;;3.40;;
69310;SDS011;56430;48.154;16.458;2022-12-07T04:38:55;7.53;;;3.58;;
69310;SDS011;56430;48.154;16.458;2022-12-07T04:41:23;8.85;;;3.60;;
69310;SDS011;56430;48.154;16.458;2022-12-07T04:43:54;9.40;;;3.83;;
69310;SDS011;56430;48.154;16.458;2022-12-07T04:46:22;9.47;;;3.83;;
69310;SDS011;56430;48.154;16.458;2022-12-07T04:48:49;8.52;;;3.47;;
69310;SDS011;56430;48.154;16.458;2022-12-07T04:51:19;7.85;;;3.28;;
69310;SDS011;56430;48.154;16.458;2022-12-07T04:53:48;10.93;;;4.00;;
69310;SDS011;56430;48.154;16.458;2022-12-07T04:56:16;8.60;;;3.80;;
69310;SDS011;56430;48.154;16.458;2022-12-07T04:58:44;8.90;;;3.43;;
69310;SDS011;56430;48.154;16.458;2022-12-07T05:01:12;9.02;;;3.47;;
69310;SDS011;56430;48.154;16.458;2022-12-07T05:03:39;8.63;;;3.38;;
69310;SDS011;56430;48.154;16.458;2022-12-07T05:06:07;8.45;;;3.28;;
69310;SDS011;56430;48.154;16.458;2022-12-07T05:08:36;9.18;;;3.90;;
69310;SDS011;56430;48.154;16.458;2022-12-07T05:11:03;7.27;;;3.20;;
69310;SDS011;56430;48.154;16.458;2022-12-07T05:13:32;10.43;;;3.65;;
69310;SDS011;56430;48.154;16.458;2022-12-07T05:15:59;8.25;;;3.45;;
69310;SDS011;56430;48.154;16.458;2022-12-07T05:18:27;8.20;;;3.22;;
69310;SDS011;56430;48.154;16.458;2022-12-07T05:20:54;9.88;;;3.75;;
69310;SDS011;56430;48.154;16.458;2022-12-07T05:23:21;9.87;;;3.47;;
69310;SDS011;56430;48.154;16.458;2022-12-07T05:25:50;8.98;;;3.40;;
69310;SDS011;56430;48.154;16.458;2022-12-07T05:28:17;8.68;;;3.20;;
69310;SDS011;56430;48.154;16.458;2022-12-07T05:30:44;9.40;;;3.03;;
69310;SDS011;56430;48.154;16.458;2022-12-07T05:33:12;7.55;;;3.42;;
69310;SDS011;56430;48.154;16.458;2022-12-07T05:35:40;8.87;;;3.10;;
69310;SDS011;56430;48.154;16.458;2022-12-07T05:38:07;9.40;;;3.58;;
69310;SDS011;56430;48.154;16.458;2022-12-07T05:40:34;7.70;;;3.13;;
69310;SDS011;56430;48.154;16.458;2022-12-07T05:43:02;8.18;;;3.20;;
69310;SDS011;56430;48.154;16.458;2022-12-07T05:45:30;9.73;;;3.58;;
69310;SDS011;56430;48.154;16.458;2022-12-07T05:47:57;10.07;;;3.33;;
69310;SDS011;56430;48.154;16.458;2022-12-07T05:50:24;9.32;;;3.95;;
69310;SDS011;56430;48.154;16.458;2022-12-07T05:52:51;10.50;;;3.60;;
69310;SDS011;56430;48.154;16.458;2022-12-07T05:55:18;8.60;;;3.22;;
69310;SDS011;56430;48.154;16.458;2022-12-07T05:57:46;7.70;;;3.10;;
69310;SDS011;56430;48.154;16.458;2022-12-07T06:00:28;10.17;;;3.80;;
69310;SDS011;56430;48.154;16.458;2022-12-07T06:02:55;7.68;;;2.95;;
69310;SDS011;56430;48.154;16.458;2022-12-07T06:05:23;11.52;;;3.35;;
69310;SDS011;56430;48.154;16.458;2022-12-07T06:07:50;8.52;;;3.22;;
69310;SDS011;56430;48.154;16.458;2022-12-07T06:10:17;11.05;;;3.33;;
69310;SDS011;56430;48.154;16.458;2022-12-07T06:12:44;8.40;;;3.40;;
69310;SDS011;56430;48.154;16.458;2022-12-07T06:15:11;9.38;;;3.38;;
69310;SDS011;56430;48.154;16.458;2022-12-07T06:17:40;8.52;;;3.10;;
69310;SDS011;56430;48.154;16.458;2022-12-07T06:20:08;10.10;;;3.30;;
69310;SDS011;56430;48.154;16.458;2022-12-07T06:22:35;9.00;;;3.33;;
69310;SDS011;56430;48.154;16.458;2022-12-07T06:25:03;7.97;;;2.80;;
69310;SDS011;56430;48.154;16.458;2022-12-07T06:27:30;6.93;;;2.50;;
69310;SDS011;56430;48.154;16.458;2022-12-07T06:29:58;8.35;;;3.20;;
69310;SDS011;56430;48.154;16.458;2022-12-07T06:32:31;6.50;;;2.72;;
69310;SDS011;56430;48.154;16.458;2022-12-07T06:34:59;8.02;;;3.00;;
69310;SDS011;56430;48.154;16.458;2022-12-07T06:37:27;9.30;;;2.77;;
69310;SDS011;56430;48.154;16.458;2022-12-07T06:39:54;9.05;;;3.25;;
69310;SDS011;56430;48.154;16.458;2022-12-07T06:42:21;8.27;;;2.88;;
69310;SDS011;56430;48.154;16.458;2022-12-07T06:44:48;9.93;;;3.15;;
69310;SDS011;56430;48.154;16.458;2022-12-07T06:47:16;11.70;;;4.10;;
69310;SDS011;56430;48.154;16.458;2022-12-07T06:49:43;9.53;;;3.30;;
69310;SDS011;56430;48.154;16.458;2022-12-07T06:52:11;11.70;;;3.30;;
69310;SDS011;56430;48.154;16.458;2022-12-07T06:54:39;10.75;;;2.80;;
69310;SDS011;56430;48.154;16.458;2022-12-07T06:57:06;9.98;;;3.10;;
69310;SDS011;56430;48.154;16.458;2022-12-07T06:59:33;5.55;;;2.13;;
69310;SDS011;56430;48.154;16.458;2022-12-07T07:02:00;7.83;;;3.17;;
69310;SDS011;56430;48.154;16.458;2022-12-07T07:04:28;9.30;;;2.63;;
69310;SDS011;56430;48.154;16.458;2022-12-07T07:06:55;9.13;;;3.05;;
69310;SDS011;56430;48.154;16.458;2022-12-07T07:09:23;6.45;;;2.40;;
69310;SDS011;56430;48.154;16.458;2022-12-07T07:11:51;7.05;;;3.03;;
69310;SDS011;56430;48.154;16.458;2022-12-07T07:14:18;6.90;;;2.47;;
69310;SDS011;56430;48.154;16.458;2022-12-07T07:16:46;8.57;;;2.58;;
69310;SDS011;56430;48.154;16.458;2022-12-07T07:19:14;7.43;;;2.97;;
69310;SDS011;56430;48.154;16.458;2022-12-07T07:21:41;6.25;;;2.60;;
69310;SDS011;56430;48.154;16.458;2022-12-07T07:24:08;12.15;;;3.17;;
69310;SDS011;56430;48.154;16.458;2022-12-07T07:26:37;6.60;;;2.40;;
69310;SDS011;56430;48.154;16.458;2022-12-07T07:29:04;7.40;;;2.17;;
69310;SDS011;56430;48.154;16.458;2022-12-07T07:31:31;7.28;;;2.70;;
69310;SDS011;56430;48.154;16.458;2022-12-07T07:34:01;6.00;;;2.17;;
69310;SDS011;56430;48.154;16.458;2022-12-07T07:36:30;5.38;;;2.30;;
69310;SDS011;56430;48.154;16.458;2022-12-07T07:38:57;7.07;;;2.57;;
69310;SDS011;56430;48.154;16.458;2022-12-07T07:41:25;6.75;;;2.60;;
69310;SDS011;56430;48.154;16.458;2022-12-07T07:43:53;7.75;;;2.60;;
69310;SDS011;56430;48.154;16.458;2022-12-07T07:46:20;6.72;;;2.38;;
69310;SDS011;56430;48.154;16.458;2022-12-07T07:48:48;7.72;;;2.47;;
69310;SDS011;56430;48.154;16.458;2022-12-07T07:51:15;5.83;;;2.30;;
69310;SDS011;56430;48.154;16.458;2022-12-07T07:53:42;8.13;;;3.10;;
69310;SDS011;56430;48.154;16.458;2022-12-07T07:56:09;9.32;;;2.70;;
69310;SDS011;56430;48.154;16.458;2022-12-07T07:58:36;7.97;;;3.28;;
69310;SDS011;56430;48.154;16.458;2022-12-07T08:01:06;6.88;;;2.53;;
69310;SDS011;56430;48.154;16.458;2022-12-07T08:03:34;6.83;;;2.30;;
69310;SDS011;56430;48.154;16.458;2022-12-07T08:06:02;6.90;;;2.25;;
69310;SDS011;56430;48.154;16.458;2022-12-07T08:08:29;6.72;;;2.70;;
69310;SDS011;56430;48.154;16.458;2022-12-07T08:10:57;6.47;;;2.13;;
69310;SDS011;56430;48.154;16.458;2022-12-07T08:13:26;8.45;;;2.92;;
69310;SDS011;56430;48.154;16.458;2022-12-07T08:15:53;6.80;;;2.60;;
69310;SDS011;56430;48.154;16.458;2022-12-07T08:18:22;6.30;;;2.42;;
69310;SDS011;56430;48.154;16.458;2022-12-07T08:20:49;7.43;;;2.55;;
69310;SDS011;56430;48.154;16.458;2022-12-07T08:23:16;6.10;;;2.30;;
69310;SDS011;56430;48.154;16.458;2022-12-07T08:25:44;5.45;;;2.30;;
69310;SDS011;56430;48.154;16.458;2022-12-07T08:28:14;5.63;;;2.30;;
69310;SDS011;56430;48.154;16.458;2022-12-07T08:30:42;5.82;;;2.20;;
69310;SDS011;56430;48.154;16.458;2022-12-07T08:33:09;8.35;;;3.38;;
69310;SDS011;56430;48.154;16.458;2022-12-07T08:35:38;5.40;;;2.30;;
69310;SDS011;56430;48.154;16.458;2022-12-07T08:38:05;5.80;;;2.10;;
69310;SDS011;56430;48.154;16.458;2022-12-07T08:40:33;6.03;;;2.40;;
69310;SDS011;56430;48.154;16.458;2022-12-07T08:43:00;5.40;;;2.35;;
69310;SDS011;56430;48.154;16.458;2022-12-07T08:45:28;5.43;;;2.30;;
69310;SDS011;56430;48.154;16.458;2022-12-07T08:47:58;5.53;;;2.50;;
69310;SDS011;56430;48.154;16.458;2022-12-07T08:50:28;5.60;;;2.15;;
69310;SDS011;56430;48.154;16.458;2022-12-07T08:52:57;5.37;;;1.87;;
69310;SDS011;56430;48.154;16.458;2022-12-07T08:55:25;5.15;;;2.13;;
69310;SDS011;56430;48.154;16.458;2022-12-07T08:57:53;11.00;;;2.10;;
69310;SDS011;56430;48.154;16.458;2022-12-07T09:00:21;5.78;;;2.10;;
69310;SDS011;56430;48.154;16.458;2022-12-07T09:02:48;4.18;;;1.90;;
69310;SDS011;56430;48.154;16.458;2022-12-07T09:05:15;5.23;;;1.97;;
69310;SDS011;56430;48.154;16.458;2022-12-07T09:07:46;5.53;;;2.20;;
69310;SDS011;56430;48.154;16.458;2022-12-07T09:10:17;5.80;;;2.45;;
69310;SDS011;56430;48.154;16.458;2022-12-07T09:12:45;5.32;;;1.90;;
69310;SDS011;56430;48.154;16.458;2022-12-07T09:15:12;4.95;;;1.90;;
69310;SDS011;56430;48.154;16.458;2022-12-07T09:17:40;6.27;;;2.20;;
69310;SDS011;56430;48.154;16.458;2022-12-07T09:20:07;5.05;;;2.28;;
69310;SDS011;56430;48.154;16.458;2022-12-07T09:22:35;5.03;;;2.08;;
69310;SDS011;56430;48.154;16.458;2022-12-07T09:25:03;3.85;;;1.75;;
69310;SDS011;56430;48.154;16.458;2022-12-07T09:27:32;4.35;;;1.92;;
69310;SDS011;56430;48.154;16.458;2022-12-07T09:29:59;5.40;;;2.10;;
69310;SDS011;56430;48.154;16.458;2022-12-07T09:32:27;4.47;;;1.80;;
69310;SDS011;56430;48.154;16.458;2022-12-07T09:34:54;6.07;;;2.10;;
69310;SDS011;56430;48.154;16.458;2022-12-07T09:37:21;7.40;;;2.10;;
69310;SDS011;56430;48.154;16.458;2022-12-07T09:39:49;6.50;;;1.83;;
69310;SDS011;56430;48.154;16.458;2022-12-07T09:42:23;4.23;;;1.70;;
69310;SDS011;56430;48.154;16.458;2022-12-07T09:44:55;5.50;;;2.22;;
69310;SDS011;56430;48.154;16.458;2022-12-07T09:47:23;5.22;;;2.42;;
69310;SDS011;56430;48.154;16.458;2022-12-07T09:49:51;4.40;;;2.10;;
69310;SDS011;56430;48.154;16.458;2022-12-07T09:52:19;7.18;;;2.50;;
69310;SDS011;56430;48.154;16.458;2022-12-07T09:54:49;5.77;;;2.00;;
69310;SDS011;56430;48.154;16.458;2022-12-07T09:57:17;6.10;;;2.70;;
69310;SDS011;56430;48.154;16.458;2022-12-07T09:59:45;6.10;;;2.53;;
69310;SDS011;56430;48.154;16.458;2022-12-07T10:02:23;4.88;;;2.28;;
69310;SDS011;56430;48.154;16.458;2022-12-07T10:04:55;5.68;;;2.40;;
69310;SDS011;56430;48.154;16.458;2022-12-07T10:07:24;5.50;;;2.53;;
69310;SDS011;56430;48.154;16.458;2022-12-07T10:09:51;5.15;;;2.60;;
69310;SDS011;56430;48.154;16.458;2022-12-07T10:12:19;6.22;;;2.65;;
69310;SDS011;56430;48.154;16.458;2022-12-07T10:14:53;5.35;;;2.20;;
69310;SDS011;56430;48.154;16.458;2022-12-07T10:17:33;5.65;;;2.50;;
69310;SDS011;56430;48.154;16.458;2022-12-07T10:20:12;4.47;;;2.10;;
69310;SDS011;56430;48.154;16.458;2022-12-07T10:22:55;4.72;;;2.40;;
69310;SDS011;56430;48.154;16.458;2022-12-07T10:25:28;6.85;;;2.70;;
69310;SDS011;56430;48.154;16.458;2022-12-07T10:28:02;5.88;;;2.75;;
69310;SDS011;56430;48.154;16.458;2022-12-07T10:30:45;4.93;;;2.42;;
69310;SDS011;56430;48.154;16.458;2022-12-07T10:33:19;4.67;;;2.20;;
69310;SDS011;56430;48.154;16.458;2022-12-07T10:35:55;4.32;;;2.35;;
69310;SDS011;56430;48.154;16.458;2022-12-07T10:38:23;4.28;;;1.90;;
69310;SDS011;56430;48.154;16.458;2022-12-07T10:40:54;4.55;;;2.20;;
69310;SDS011;56430;48.154;16.458;2022-12-07T10:43:31;5.15;;;2.03;;
69310;SDS011;56430;48.154;16.458;2022-12-07T10:46:07;4.07;;;1.87;;
69310;SDS011;56430;48.154;16.458;2022-12-07T10:48:47;4.63;;;2.10;;
69310;SDS011;56430;48.154;16.458;2022-12-07T10:51:21;4.97;;;2.10;;
69310;SDS011;56430;48.154;16.458;2022-12-07T10:53:53;5.40;;;2.00;;
69310;SDS011;56430;48.154;16.458;2022-12-07T10:56:30;4.45;;;2.08;;
69310;SDS011;56430;48.154;16.458;2022-12-07T10:59:11;4.70;;;2.30;;
69310;SDS011;56430;48.154;16.458;2022-12-07T11:01:51;5.80;;;2.50;;
69310;SDS011;56430;48.154;16.458;2022-12-07T11:04:27;5.88;;;2.13;;
69310;SDS011;56430;48.154;16.458;2022-12-07T11:07:01;6.25;;;2.00;;
69310;SDS011;56430;48.154;16.458;2022-12-07T11:09:40;7.57;;;2.65;;
69310;SDS011;56430;48.154;16.458;2022-12-07T11:12:26;6.47;;;2.53;;
69310;SDS011;56430;48.154;16.458;2022-12-07T11:14:58;6.82;;;2.58;;
69310;SDS011;56430;48.154;16.458;2022-12-07T11:17:31;6.10;;;2.70;;
69310;SDS011;56430;48.154;16.458;2022-12-07T11:20:05;5.85;;;2.80;;
69310;SDS011;56430;48.154;16.458;2022-12-07T11:22:43;4.72;;;2.10;;
69310;SDS011;56430;48.154;16.458;2022-12-07T11:25:18;6.67;;;2.90;;
69310;SDS011;56430;48.154;16.458;2022-12-07T11:27:54;5.78;;;2.20;;
69310;SDS011;56430;48.154;16.458;2022-12-07T11:30:38;6.60;;;2.55;;
69310;SDS011;56430;48.154;16.458;2022-12-07T11:33:12;5.15;;;2.28;;
69310;SDS011;56430;48.154;16.458;2022-12-07T11:35:47;5.63;;;2.42;;
69310;SDS011;56430;48.154;16.458;2022-12-07T11:38:26;4.50;;;1.93;;
69310;SDS011;56430;48.154;16.458;2022-12-07T11:40:58;6.05;;;2.80;;
69310;SDS011;56430;48.154;16.458;2022-12-07T11:43:40;6.22;;;2.40;;
69310;SDS011;56430;48.154;16.458;2022-12-07T11:46:21;5.95;;;2.50;;
69310;SDS011;56430;48.154;16.458;2022-12-07T11:48:52;5.57;;;2.17;;
69310;SDS011;56430;48.154;16.458;2022-12-07T11:51:25;4.77;;;2.20;;
69310;SDS011;56430;48.154;16.458;2022-12-07T11:53:54;6.20;;;2.40;;
69310;SDS011;56430;48.154;16.458;2022-12-07T11:56:25;9.20;;;1.95;;
69310;SDS011;56430;48.154;16.458;2022-12-07T11:58:54;4.45;;;1.85;;
69310;SDS011;56430;48.154;16.458;2022-12-07T12:01:29;4.15;;;1.90;;
69310;SDS011;56430;48.154;16.458;2022-12-07T12:04:03;5.17;;;2.20;;
69310;SDS011;56430;48.154;16.458;2022-12-07T12:06:35;3.70;;;1.50;;
69310;SDS011;56430;48.154;16.458;2022-12-07T12:09:04;4.20;;;1.83;;
69310;SDS011;56430;48.154;16.458;2022-12-07T12:11:39;4.97;;;1.85;;
69310;SDS011;56430;48.154;16.458;2022-12-07T12:14:22;4.72;;;1.95;;
69310;SDS011;56430;48.154;16.458;2022-12-07T12:17:11;7.93;;;2.67;;
69310;SDS011;56430;48.154;16.458;2022-12-07T12:19:45;6.63;;;2.10;;
69310;SDS011;56430;48.154;16.458;2022-12-07T12:22:28;6.15;;;2.40;;
69310;SDS011;56430;48.154;16.458;2022-12-07T12:25:02;4.57;;;1.75;;
69310;SDS011;56430;48.154;16.458;2022-12-07T12:27:32;4.60;;;2.00;;
69310;SDS011;56430;48.154;16.458;2022-12-07T12:30:01;4.47;;;1.97;;
69310;SDS011;56430;48.154;16.458;2022-12-07T12:32:32;5.28;;;2.10;;
69310;SDS011;56430;48.154;16.458;2022-12-07T12:37:57;5.22;;;2.30;;
69310;SDS011;56430;48.154;16.458;2022-12-07T12:40:59;5.50;;;2.42;;
69310;SDS011;56430;48.154;16.458;2022-12-07T12:43:43;5.73;;;2.23;;
69310;SDS011;56430;48.154;16.458;2022-12-07T12:58:38;4.60;;;2.00;;
69310;SDS011;56430;48.154;16.458;2022-12-07T13:10:33;4.25;;;1.77;;
69310;SDS011;56430;48.154;16.458;2022-12-07T13:13:03;4.67;;;1.53;;
69310;SDS011;56430;48.154;16.458;2022-12-07T13:15:35;4.68;;;1.95;;
69310;SDS011;56430;48.154;16.458;2022-12-07T13:18:04;3.55;;;1.80;;
69310;SDS011;56430;48.154;16.458;2022-12-07T13:20:51;6.75;;;1.88;;
69310;SDS011;56430;48.154;16.458;2022-12-07T13:23:21;4.97;;;2.28;;
69310;SDS011;56430;48.154;16.458;2022-12-07T13:28:43;5.25;;;2.22;;
69310;SDS011;56430;48.154;16.458;2022-12-07T13:31:18;4.65;;;1.90;;
69310;SDS011;56430;48.154;16.458;2022-12-07T13:33:57;6.50;;;2.03;;
69310;SDS011;56430;48.154;16.458;2022-12-07T13:36:26;5.25;;;2.08;;
69310;SDS011;56430;48.154;16.458;2022-12-07T13:38:57;5.33;;;2.10;;
69310;SDS011;56430;48.154;16.458;2022-12-07T13:41:26;5.32;;;2.25;;
69310;SDS011;56430;48.154;16.458;2022-12-07T13:43:59;5.57;;;2.38;;
69310;SDS011;56430;48.154;16.458;2022-12-07T13:46:35;5.90;;;2.50;;
69310;SDS011;56430;48.154;16.458;2022-12-07T13:49:16;5.85;;;2.40;;
69310;SDS011;56430;48.154;16.458;2022-12-07T13:51:47;6.63;;;2.27;;
69310;SDS011;56430;48.154;16.458;2022-12-07T13:54:15;4.63;;;2.03;;
69310;SDS011;56430;48.154;16.458;2022-12-07T13:56:43;4.95;;;2.25;;
69310;SDS011;56430;48.154;16.458;2022-12-07T13:59:16;6.03;;;2.83;;
69310;SDS011;56430;48.154;16.458;2022-12-07T14:01:47;5.65;;;2.50;;
69310;SDS011;56430;48.154;16.458;2022-12-07T14:04:19;8.90;;;2.80;;
69310;SDS011;56430;48.154;16.458;2022-12-07T14:06:54;7.25;;;2.78;;
69310;SDS011;56430;48.154;16.458;2022-12-07T14:09:22;7.78;;;3.20;;
69310;SDS011;56430;48.154;16.458;2022-12-07T14:11:50;6.75;;;2.78;;
69310;SDS011;56430;48.154;16.458;2022-12-07T14:14:20;5.82;;;2.65;;
69310;SDS011;56430;48.154;16.458;2022-12-07T14:17:02;7.17;;;2.57;;
69310;SDS011;56430;48.154;16.458;2022-12-07T14:19:42;7.47;;;2.60;;
69310;SDS011;56430;48.154;16.458;2022-12-07T14:22:25;8.13;;;3.15;;
69310;SDS011;56430;48.154;16.458;2022-12-07T14:27:48;7.18;;;2.60;;
69310;SDS011;56430;48.154;16.458;2022-12-07T14:30:21;6.63;;;2.90;;
69310;SDS011;56430;48.154;16.458;2022-12-07T14:32:52;5.53;;;2.40;;
69310;SDS011;56430;48.154;16.458;2022-12-07T14:35:21;7.78;;;3.33;;
69310;SDS011;56430;48.154;16.458;2022-12-07T14:37:49;7.85;;;3.20;;
69310;SDS011;56430;48.154;16.458;2022-12-07T14:40:17;7.65;;;3.25;;
69310;SDS011;56430;48.154;16.458;2022-12-07T14:42:46;6.97;;;2.80;;
69310;SDS011;56430;48.154;16.458;2022-12-07T14:47:43;6.20;;;2.63;;
69310;SDS011;56430;48.154;16.458;2022-12-07T14:50:13;8.18;;;2.45;;
69310;SDS011;56430;48.154;16.458;2022-12-07T14:52:42;10.10;;;3.55;;
69310;SDS011;56430;48.154;16.458;2022-12-07T14:55:14;8.77;;;3.33;;
69310;SDS011;56430;48.154;16.458;2022-12-07T14:57:46;7.65;;;3.03;;
69310;SDS011;56430;48.154;16.458;2022-12-07T15:00:14;8.48;;;2.88;;
69310;SDS011;56430;48.154;16.458;2022-12-07T15:02:43;10.23;;;3.80;;
69310;SDS011;56430;48.154;16.458;2022-12-07T15:05:13;9.02;;;2.97;;
69310;SDS011;56430;48.154;16.458;2022-12-07T15:07:43;8.73;;;3.07;;
69310;SDS011;56430;48.154;16.458;2022-12-07T15:10:13;9.38;;;3.40;;
69310;SDS011;56430;48.154;16.458;2022-12-07T15:12:43;7.65;;;2.92;;
69310;SDS011;56430;48.154;16.458;2022-12-07T15:15:10;7.82;;;3.03;;
69310;SDS011;56430;48.154;16.458;2022-12-07T15:17:37;6.72;;;2.97;;
69310;SDS011;56430;48.154;16.458;2022-12-07T15:20:05;7.50;;;2.93;;
69310;SDS011;56430;48.154;16.458;2022-12-07T15:22:35;7.35;;;2.75;;
69310;SDS011;56430;48.154;16.458;2022-12-07T15:25:03;8.25;;;2.85;;
69310;SDS011;56430;48.154;16.458;2022-12-07T15:27:31;7.35;;;2.90;;